Time;durP1;ratioP1;P1;durP2;ratioP2;P2;SDS_P1;SDS_P2;PMS_P1;PMS_P2;Temp;Humidity;BMP_temperature;BMP_pressure;BME280_temperature;BME280_humidity;BME280_pressure;Samples;Min_cycle;Max_cycle;Signal;HPM_P1;HPM_P2
2023/09/04 00:02:09;;;;;;;1.33;0.50;;;12.90;99.90;;;;;;6091599;23;20022;-64
2023/09/04 00:04:35;;;;;;;2.65;0.70;;;12.90;99.90;;;;;;6092181;23;20022;-63
2023/09/04 00:07:02;;;;;;;1.58;0.68;;;12.90;99.90;;;;;;6117329;23;20021;-63
2023/09/04 00:09:27;;;;;;;0.63;0.63;;;12.90;99.90;;;;;;6118777;23;20022;-63
2023/09/04 00:11:53;;;;;;;0.70;0.65;;;12.90;99.90;;;;;;6092420;23;20395;-63
2023/09/04 00:14:19;;;;;;;1.20;0.73;;;12.90;99.90;;;;;;6118210;23;20014;-63
2023/09/04 00:16:44;;;;;;;0.90;0.65;;;12.90;99.90;;;;;;6117740;23;20307;-63
2023/09/04 00:19:10;;;;;;;0.75;0.40;;;12.90;99.90;;;;;;6092388;23;20092;-63
2023/09/04 00:21:36;;;;;;;3.10;0.50;;;12.90;99.90;;;;;;6091820;23;20014;-63
2023/09/04 00:24:02;;;;;;;1.85;0.70;;;12.80;99.90;;;;;;6119100;23;20018;-63
2023/09/04 00:26:27;;;;;;;0.60;0.50;;;12.80;99.90;;;;;;6117211;23;20014;-64
2023/09/04 00:28:53;;;;;;;0.70;0.60;;;12.80;99.90;;;;;;6092499;23;20399;-63
2023/09/04 00:31:18;;;;;;;0.70;0.50;;;12.80;99.90;;;;;;6117472;23;20021;-63
2023/09/04 00:33:44;;;;;;;1.55;0.45;;;12.80;99.90;;;;;;6090991;23;20026;-63
2023/09/04 00:36:09;;;;;;;0.50;0.40;;;12.70;99.90;;;;;;6117916;23;20531;-63
2023/09/04 00:38:35;;;;;;;1.35;0.80;;;12.70;99.90;;;;;;6091722;23;20143;-64
2023/09/04 00:41:01;;;;;;;1.17;0.82;;;12.70;99.90;;;;;;6117537;23;20074;-64
2023/09/04 00:43:35;;;;;;;0.98;0.57;;;12.60;99.90;;;;;;6118728;23;20391;-64
2023/09/04 00:46:03;;;;;;;1.08;0.70;;;12.60;99.90;;;;;;6092888;23;20093;-63
2023/09/04 00:48:29;;;;;;;0.80;0.60;;;12.60;99.90;;;;;;6091680;23;20022;-64
2023/09/04 00:50:55;;;;;;;2.00;1.65;;;12.60;99.90;;;;;;6091021;23;20437;-64
2023/09/04 00:53:21;;;;;;;1.48;1.05;;;12.60;99.90;;;;;;6117924;23;20098;-63
2023/09/04 00:55:48;;;;;;;2.65;0.88;;;12.60;99.90;;;;;;6090511;23;20049;-64
2023/09/04 00:58:14;;;;;;;1.85;1.38;;;12.60;99.90;;;;;;6091798;23;20410;-63
2023/09/04 01:00:40;;;;;;;0.50;0.50;;;12.50;99.90;;;;;;6118056;23;20017;-64
2023/09/04 01:03:06;;;;;;;1.10;1.00;;;12.50;99.90;;;;;;6118503;23;20013;-64
2023/09/04 01:05:32;;;;;;;2.55;0.90;;;12.50;99.90;;;;;;6114494;23;20025;-64
2023/09/04 01:08:02;;;;;;;1.00;0.88;;;12.50;99.90;;;;;;6090011;23;20395;-64
2023/09/04 01:10:38;;;;;;;1.20;1.00;;;12.50;99.90;;;;;;6091174;23;20441;-64
2023/09/04 01:13:15;;;;;;;1.38;0.90;;;12.50;99.90;;;;;;6069009;23;20037;-64
2023/09/04 01:15:41;;;;;;;0.80;0.75;;;12.50;99.90;;;;;;6117131;23;20025;-64
2023/09/04 01:18:07;;;;;;;1.13;0.80;;;12.40;99.90;;;;;;6117555;23;20010;-64
2023/09/04 01:20:33;;;;;;;2.88;1.00;;;12.50;99.90;;;;;;6118342;23;20045;-63
2023/09/04 01:22:59;;;;;;;3.78;1.30;;;12.50;99.90;;;;;;6117758;23;20021;-64
2023/09/04 01:25:44;;;;;;;1.45;1.13;;;12.50;99.90;;;;;;6117457;23;20010;-64
2023/09/04 01:28:28;;;;;;;2.70;1.23;;;12.50;99.90;;;;;;6089897;23;20089;-64
2023/09/04 01:30:56;;;;;;;1.10;1.00;;;12.40;99.90;;;;;;6065741;23;20476;-64
2023/09/04 01:33:29;;;;;;;1.05;0.95;;;12.40;99.90;;;;;;6091522;23;20083;-64
2023/09/04 01:35:57;;;;;;;1.65;0.93;;;12.40;99.90;;;;;;6115978;23;20006;-64
2023/09/04 01:38:23;;;;;;;0.80;0.70;;;12.40;99.90;;;;;;6115300;23;20333;-64
2023/09/04 01:40:51;;;;;;;1.20;1.10;;;12.30;99.90;;;;;;6114224;23;20018;-64
2023/09/04 01:43:18;;;;;;;1.17;0.90;;;12.30;99.90;;;;;;6091949;23;20072;-63
2023/09/04 01:45:43;;;;;;;1.40;1.20;;;12.20;99.90;;;;;;6089896;23;20032;-63
2023/09/04 01:48:09;;;;;;;1.98;1.25;;;12.30;99.90;;;;;;6091514;23;20025;-64
2023/09/04 01:50:34;;;;;;;2.28;1.00;;;12.30;99.90;;;;;;6117276;23;20052;-63
2023/09/04 01:53:00;;;;;;;1.77;0.75;;;12.30;99.90;;;;;;6117836;23;20022;-63
2023/09/04 01:55:25;;;;;;;1.67;0.60;;;12.20;99.90;;;;;;6117073;23;20089;-64
2023/09/04 01:57:51;;;;;;;0.70;0.60;;;12.20;99.90;;;;;;6118515;23;20460;-64
2023/09/04 02:00:17;;;;;;;1.08;0.88;;;12.20;99.90;;;;;;6090022;23;20341;-64
2023/09/04 02:02:43;;;;;;;0.93;0.80;;;12.20;99.90;;;;;;6117779;23;20125;-64
2023/09/04 02:05:08;;;;;;;1.83;0.73;;;12.20;99.90;;;;;;6116361;23;20032;-64
2023/09/04 02:07:34;;;;;;;1.33;0.75;;;12.20;99.90;;;;;;6091841;23;20021;-63
2023/09/04 02:09:59;;;;;;;1.00;0.73;;;12.20;99.90;;;;;;6117186;23;20093;-63
2023/09/04 02:12:25;;;;;;;0.80;0.70;;;12.20;99.90;;;;;;6091835;23;20021;-63
2023/09/04 02:14:52;;;;;;;0.80;0.75;;;12.10;99.90;;;;;;6092014;23;20402;-64
2023/09/04 02:17:17;;;;;;;1.27;1.17;;;12.10;99.90;;;;;;6088900;23;20014;-63
2023/09/04 02:19:43;;;;;;;1.13;0.73;;;12.10;99.90;;;;;;6117280;23;20018;-63
2023/09/04 02:22:09;;;;;;;3.72;0.88;;;12.10;99.90;;;;;;6117022;23;20090;-63
2023/09/04 02:24:34;;;;;;;1.33;1.23;;;12.00;99.90;;;;;;6117409;23;20081;-63
2023/09/04 02:27:00;;;;;;;1.25;1.10;;;12.00;99.90;;;;;;6090865;23;20026;-63
2023/09/04 02:29:25;;;;;;;2.95;1.85;;;12.00;99.90;;;;;;6116410;23;20025;-63
2023/09/04 02:31:51;;;;;;;2.35;2.13;;;11.90;99.90;;;;;;6090563;23;20014;-63
2023/09/04 02:34:17;;;;;;;4.60;1.60;;;11.90;99.90;;;;;;6091770;23;20024;-63
2023/09/04 02:36:42;;;;;;;3.33;1.65;;;12.00;99.90;;;;;;6089487;23;20348;-64
2023/09/04 02:39:08;;;;;;;4.70;2.30;;;12.00;99.90;;;;;;6117845;23;20440;-63
2023/09/04 02:41:33;;;;;;;1.83;1.73;;;12.00;99.90;;;;;;6117137;23;20022;-63
2023/09/04 02:43:59;;;;;;;3.00;2.30;;;12.00;99.90;;;;;;6114904;23;20038;-63
2023/09/04 02:46:24;;;;;;;3.58;2.42;;;12.00;99.90;;;;;;6088940;23;20396;-63
2023/09/04 02:48:50;;;;;;;2.08;1.98;;;12.00;99.90;;;;;;6091460;23;20022;-63
2023/09/04 02:51:15;;;;;;;2.53;2.30;;;12.00;99.90;;;;;;6117583;23;20021;-64
2023/09/04 02:53:41;;;;;;;3.97;2.05;;;12.00;99.90;;;;;;6090781;23;20369;-63
2023/09/04 02:56:07;;;;;;;1.85;1.65;;;12.00;99.90;;;;;;6116334;23;20021;-63
2023/09/04 02:58:32;;;;;;;2.08;1.20;;;12.00;99.90;;;;;;6115399;23;20029;-64
2023/09/04 03:00:58;;;;;;;2.63;1.80;;;11.90;99.90;;;;;;6116420;23;20045;-63
2023/09/04 03:03:24;;;;;;;3.20;2.15;;;11.90;99.90;;;;;;6116139;23;20018;-64
2023/09/04 03:05:49;;;;;;;3.70;2.70;;;11.90;99.90;;;;;;6117453;23;20028;-63
2023/09/04 03:08:15;;;;;;;2.53;2.00;;;11.90;99.90;;;;;;6116444;23;20310;-64
2023/09/04 03:10:41;;;;;;;2.53;1.58;;;11.90;99.90;;;;;;6115238;23;20018;-64
2023/09/04 03:13:06;;;;;;;1.80;0.93;;;12.00;99.90;;;;;;6116620;23;20045;-64
2023/09/04 03:15:32;;;;;;;4.10;1.92;;;11.90;99.90;;;;;;6116356;23;20115;-64
2023/09/04 03:17:57;;;;;;;2.70;1.13;;;11.90;99.90;;;;;;6114793;23;20329;-64
2023/09/04 03:20:23;;;;;;;1.50;1.40;;;11.80;99.90;;;;;;6117306;23;20010;-64
2023/09/04 03:22:48;;;;;;;2.10;1.67;;;11.80;99.90;;;;;;6090920;23;20067;-64
2023/09/04 03:25:14;;;;;;;2.40;2.20;;;11.80;99.90;;;;;;6089637;23;20408;-64
2023/09/04 03:27:40;;;;;;;2.50;2.30;;;11.70;99.90;;;;;;6116173;23;20099;-63
2023/09/04 03:30:06;;;;;;;1.05;0.95;;;11.80;99.90;;;;;;6115993;23;20028;-64
2023/09/04 03:32:32;;;;;;;1.30;1.10;;;11.80;99.90;;;;;;6116380;23;20056;-64
2023/09/04 03:34:58;;;;;;;1.27;1.17;;;11.80;99.90;;;;;;6090953;23;20010;-64
2023/09/04 03:37:23;;;;;;;1.85;1.17;;;11.70;99.90;;;;;;6115353;23;20060;-64
2023/09/04 03:39:49;;;;;;;2.10;1.60;;;11.70;99.90;;;;;;6115896;23;20010;-64
2023/09/04 03:42:14;;;;;;;3.60;2.15;;;11.60;99.90;;;;;;6089954;23;20080;-64
2023/09/04 03:44:40;;;;;;;1.73;1.48;;;11.70;99.90;;;;;;6117154;23;20010;-64
2023/09/04 03:47:05;;;;;;;1.58;1.40;;;11.60;99.90;;;;;;6088742;23;20477;-64
2023/09/04 03:49:31;;;;;;;4.13;2.03;;;11.70;99.90;;;;;;6114293;23;20020;-63
2023/09/04 03:51:56;;;;;;;2.60;2.40;;;11.60;99.90;;;;;;6115624;23;20024;-64
2023/09/04 03:54:22;;;;;;;2.95;2.75;;;11.70;99.90;;;;;;6117303;23;20025;-64
2023/09/04 03:56:48;;;;;;;4.22;3.92;;;11.60;99.90;;;;;;6113879;23;20077;-64
2023/09/04 03:59:14;;;;;;;3.45;3.25;;;11.60;99.90;;;;;;6117204;23;20097;-64
2023/09/04 04:01:40;;;;;;;3.35;3.10;;;11.50;99.90;;;;;;6115113;23;20049;-64
2023/09/04 04:04:09;;;;;;;7.65;4.40;;;11.50;99.90;;;;;;6089245;23;20049;-64
2023/09/04 04:06:34;;;;;;;13.55;4.53;;;11.50;99.90;;;;;;6114629;23;20309;-64
2023/09/04 04:09:00;;;;;;;14.88;7.18;;;11.40;99.90;;;;;;6064608;23;20024;-64
2023/09/04 04:11:27;;;;;;;8.48;6.53;;;11.30;99.90;;;;;;6089476;23;20341;-64
2023/09/04 04:13:52;;;;;;;7.68;6.97;;;11.30;99.90;;;;;;6090454;23;20047;-64
2023/09/04 04:16:18;;;;;;;14.68;5.53;;;11.30;99.90;;;;;;6089530;23;20022;-64
2023/09/04 04:18:43;;;;;;;17.60;2.60;;;11.20;99.90;;;;;;6117270;23;20018;-64
2023/09/04 04:21:09;;;;;;;11.82;2.40;;;11.20;99.90;;;;;;6117555;23;20016;-64
2023/09/04 04:23:35;;;;;;;2.78;2.08;;;11.30;99.90;;;;;;6117819;23;20018;-64
2023/09/04 04:26:01;;;;;;;3.67;3.22;;;11.20;99.90;;;;;;6091408;23;20018;-64
2023/09/04 04:28:26;;;;;;;4.30;2.92;;;11.30;99.90;;;;;;6117602;23;20450;-63
2023/09/04 04:30:52;;;;;;;6.85;2.30;;;11.30;99.90;;;;;;6117553;23;20407;-64
2023/09/04 04:33:18;;;;;;;3.15;2.85;;;11.20;99.90;;;;;;6117190;23;20135;-63
2023/09/04 04:35:44;;;;;;;3.30;3.10;;;11.30;99.90;;;;;;6117606;23;20472;-64
2023/09/04 04:38:10;;;;;;;3.10;2.90;;;11.30;99.90;;;;;;6118896;23;20010;-63
2023/09/04 04:40:38;;;;;;;3.90;3.60;;;11.30;99.90;;;;;;6091885;23;20046;-64
2023/09/04 04:43:04;;;;;;;7.95;4.93;;;11.20;99.90;;;;;;6091220;23;20022;-64
2023/09/04 04:45:30;;;;;;;3.20;3.00;;;11.20;99.90;;;;;;6089105;23;20101;-64
2023/09/04 05:18:03;;;;;;;3.45;3.15;;;11.10;99.90;;;;;;6122351;23;20002;-63
2023/09/04 05:20:29;;;;;;;4.60;3.00;;;11.20;99.90;;;;;;6118306;23;20014;-63
2023/09/04 05:22:54;;;;;;;2.42;2.22;;;11.20;99.90;;;;;;6091687;23;20036;-63
2023/09/04 05:25:20;;;;;;;2.22;2.05;;;11.30;99.90;;;;;;6090200;23;20042;-64
2023/09/04 05:27:46;;;;;;;3.58;2.35;;;11.80;99.90;;;;;;6117403;23;20077;-64
2023/09/04 05:30:11;;;;;;;2.65;2.10;;;12.30;99.90;;;;;;6090967;23;20017;-64
2023/09/04 05:32:37;;;;;;;2.55;1.95;;;12.90;99.90;;;;;;6087559;23;20335;-64
2023/09/04 05:35:03;;;;;;;4.18;2.80;;;13.40;99.90;;;;;;6088510;23;20104;-64
2023/09/04 05:37:28;;;;;;;2.88;1.80;;;13.80;99.90;;;;;;6064867;23;20064;-64
2023/09/04 05:39:54;;;;;;;1.35;1.25;;;13.90;99.90;;;;;;6116772;23;20375;-64
2023/09/04 05:42:19;;;;;;;1.95;1.75;;;14.00;99.90;;;;;;6116582;23;20032;-63
2023/09/04 05:44:45;;;;;;;2.10;1.90;;;14.50;99.90;;;;;;6115834;23;20022;-64
2023/09/04 05:47:10;;;;;;;3.53;2.90;;;14.90;99.90;;;;;;6089516;23;20028;-64
2023/09/04 05:49:36;;;;;;;3.10;2.85;;;15.10;99.90;;;;;;6116609;23;20032;-64
2023/09/04 05:52:02;;;;;;;3.35;3.15;;;15.30;99.90;;;;;;6116000;23;20022;-64
2023/09/04 05:54:28;;;;;;;4.90;3.40;;;15.80;99.90;;;;;;6116020;23;20085;-64
2023/09/04 05:56:54;;;;;;;4.30;3.05;;;16.10;99.90;;;;;;6113296;23;20395;-64
2023/09/04 05:59:19;;;;;;;6.30;3.58;;;17.00;99.90;;;;;;6090709;23;20018;-64
2023/09/04 06:01:45;;;;;;;3.35;3.05;;;17.40;99.90;;;;;;6086327;23;20414;-64
2023/09/04 06:04:11;;;;;;;3.40;3.10;;;17.90;99.90;;;;;;6086282;23;20021;-64
2023/09/04 06:06:38;;;;;;;6.93;3.35;;;19.00;99.90;;;;;;6086808;23;20061;-64
2023/09/04 06:09:06;;;;;;;3.30;3.00;;;20.20;99.90;;;;;;6091508;23;20030;-64
2023/09/04 06:11:32;;;;;;;4.88;2.90;;;21.10;99.90;;;;;;6116147;23;20018;-64
2023/09/04 06:13:57;;;;;;;6.35;3.63;;;22.00;99.90;;;;;;6116610;23;20035;-64
2023/09/04 06:16:23;;;;;;;3.30;3.00;;;22.80;99.90;;;;;;6116059;23;20053;-65
2023/09/04 06:18:48;;;;;;;3.67;3.00;;;23.30;99.90;;;;;;6116254;23;20014;-65
2023/09/04 06:21:14;;;;;;;5.53;3.58;;;23.90;99.90;;;;;;6089972;23;20544;-65
2023/09/04 06:23:39;;;;;;;4.45;3.65;;;24.40;99.90;;;;;;6117828;23;20120;-65
2023/09/04 06:26:05;;;;;;;4.13;3.72;;;24.90;99.90;;;;;;6089006;23;20101;-65
2023/09/04 06:28:31;;;;;;;3.63;3.33;;;24.80;99.90;;;;;;6115742;23;20029;-65
2023/09/04 06:30:57;;;;;;;4.53;3.35;;;25.00;99.90;;;;;;6091674;23;20026;-64
2023/09/04 06:33:25;;;;;;;3.50;3.13;;;24.90;99.90;;;;;;6092391;23;20499;-65
2023/09/04 06:35:51;;;;;;;4.18;3.53;;;25.10;99.90;;;;;;6066735;23;20017;-65
2023/09/04 06:38:16;;;;;;;5.45;3.58;;;25.40;99.90;;;;;;6089350;23;20429;-65
2023/09/04 06:40:42;;;;;;;4.38;3.80;;;25.20;99.90;;;;;;6117857;23;20014;-65
2023/09/04 06:43:08;;;;;;;4.13;3.70;;;25.30;99.90;;;;;;6091818;23;20017;-64
2023/09/04 06:45:38;;;;;;;6.28;3.92;;;24.50;99.90;;;;;;6117044;23;20084;-64
2023/09/04 06:48:05;;;;;;;6.97;3.53;;;23.90;99.90;;;;;;6115637;23;20526;-65
2023/09/04 06:50:31;;;;;;;3.55;3.17;;;23.40;99.90;;;;;;6088946;23;20021;-64
2023/09/04 06:52:56;;;;;;;3.60;3.28;;;22.90;99.90;;;;;;6091497;23;20029;-64
2023/09/04 06:55:22;;;;;;;3.88;3.35;;;22.60;99.90;;;;;;6115185;23;20017;-64
2023/09/04 06:57:47;;;;;;;3.75;3.45;;;22.20;99.90;;;;;;6088772;23;20022;-64
2023/09/04 07:00:13;;;;;;;3.85;3.55;;;22.20;99.90;;;;;;6091632;23;20072;-64
2023/09/04 07:02:39;;;;;;;3.92;3.13;;;22.00;99.90;;;;;;6118098;23;20073;-64
2023/09/04 07:05:07;;;;;;;5.60;3.53;;;21.90;99.90;;;;;;6091512;23;20014;-64
2023/09/04 07:07:35;;;;;;;3.75;2.92;;;21.70;99.90;;;;;;6116998;23;20017;-64
2023/09/04 07:10:02;;;;;;;4.80;3.75;;;21.60;99.90;;;;;;6116367;23;20050;-64
2023/09/04 07:12:29;;;;;;;3.08;2.78;;;21.30;99.90;;;;;;6117317;23;20014;-64
2023/09/04 07:14:55;;;;;;;3.42;3.13;;;21.10;99.90;;;;;;6091100;23;20042;-64
2023/09/04 07:17:20;;;;;;;3.63;3.20;;;21.00;99.90;;;;;;6117656;23;20036;-64
2023/09/04 07:19:46;;;;;;;4.97;3.47;;;20.90;99.90;;;;;;6091855;23;20018;-64
2023/09/04 07:22:12;;;;;;;3.42;3.03;;;20.80;99.90;;;;;;6116547;23;20018;-64
2023/09/04 07:24:37;;;;;;;3.50;3.00;;;20.60;99.90;;;;;;6089652;23;20356;-64
2023/09/04 07:27:03;;;;;;;4.03;2.92;;;20.50;99.90;;;;;;6087584;23;20026;-64
2023/09/04 07:29:30;;;;;;;3.65;3.35;;;20.50;99.90;;;;;;6116517;23;20022;-64
2023/09/04 07:31:56;;;;;;;3.30;2.97;;;20.50;99.90;;;;;;6116017;23;20014;-64
2023/09/04 07:34:22;;;;;;;3.00;2.80;;;20.30;99.90;;;;;;6117045;23;20048;-64
2023/09/04 07:36:47;;;;;;;3.13;2.72;;;20.30;99.90;;;;;;6116480;23;20014;-64
2023/09/04 07:39:13;;;;;;;3.47;2.67;;;20.20;99.90;;;;;;6116399;23;20383;-64
2023/09/04 07:41:38;;;;;;;2.72;2.35;;;20.30;99.90;;;;;;6116695;23;20052;-64
2023/09/04 07:44:04;;;;;;;3.45;2.85;;;20.20;99.90;;;;;;6116279;23;20020;-64
2023/09/04 07:46:30;;;;;;;3.33;3.03;;;20.10;99.90;;;;;;6090378;23;20037;-64
2023/09/04 07:48:56;;;;;;;3.00;2.35;;;20.00;99.90;;;;;;6089695;23;20018;-64
2023/09/04 07:51:21;;;;;;;3.28;2.85;;;20.10;99.90;;;;;;6118002;23;20093;-64
2023/09/04 07:53:47;;;;;;;3.13;2.83;;;20.10;99.90;;;;;;6092187;23;20025;-64
2023/09/04 07:56:13;;;;;;;3.00;2.67;;;20.10;99.90;;;;;;6066593;23;20606;-65
2023/09/04 07:58:39;;;;;;;2.65;2.42;;;20.20;99.90;;;;;;6117247;23;20617;-65
2023/09/04 08:01:09;;;;;;;2.95;2.05;;;20.20;99.90;;;;;;6117680;23;20018;-64
2023/09/04 08:03:35;;;;;;;2.42;2.13;;;20.30;99.90;;;;;;6091923;23;20517;-64
2023/09/04 08:06:00;;;;;;;2.75;2.33;;;20.40;99.90;;;;;;6116622;23;20010;-64
2023/09/04 08:08:26;;;;;;;2.50;2.30;;;20.50;99.90;;;;;;6116729;23;20021;-64
2023/09/04 08:10:53;;;;;;;3.55;2.20;;;20.60;99.90;;;;;;6091957;23;20353;-64
2023/09/04 08:13:19;;;;;;;3.28;2.20;;;20.80;99.90;;;;;;6091859;23;20489;-65
2023/09/04 08:15:44;;;;;;;2.83;2.15;;;21.00;99.90;;;;;;6066763;23;20022;-65
2023/09/04 08:18:10;;;;;;;2.80;2.15;;;21.20;99.90;;;;;;6091069;23;20336;-65
2023/09/04 08:20:39;;;;;;;3.15;2.28;;;21.40;99.90;;;;;;6091775;23;20014;-65
2023/09/04 08:23:06;;;;;;;5.03;2.03;;;21.70;99.90;;;;;;6117878;23;20466;-65
2023/09/04 08:25:33;;;;;;;3.55;2.65;;;21.90;99.90;;;;;;6116906;23;20024;-65
2023/09/04 08:27:58;;;;;;;2.45;2.20;;;22.00;99.90;;;;;;6090717;23;20041;-65
2023/09/04 08:30:24;;;;;;;2.63;1.70;;;22.30;99.90;;;;;;6118558;23;20025;-65
2023/09/04 08:32:50;;;;;;;2.17;1.98;;;22.50;99.90;;;;;;6092186;23;20324;-65
2023/09/04 08:35:17;;;;;;;2.55;2.22;;;22.80;99.90;;;;;;6092379;23;20024;-65
2023/09/04 08:37:43;;;;;;;3.13;1.98;;;22.80;99.90;;;;;;6091045;23;20016;-65
2023/09/04 08:40:09;;;;;;;3.03;1.55;;;22.80;99.90;;;;;;6117693;23;20067;-65
2023/09/04 08:42:38;;;;;;;3.05;2.35;;;23.00;99.90;;;;;;6092300;23;20021;-65
2023/09/04 08:45:07;;;;;;;2.38;1.60;;;23.20;99.90;;;;;;6092111;23;20468;-65
2023/09/04 08:47:38;;;;;;;3.80;1.40;;;23.40;99.90;;;;;;6090806;23;20018;-65
2023/09/04 08:50:04;;;;;;;2.28;1.88;;;23.70;99.90;;;;;;6091938;23;20018;-65
2023/09/04 08:52:30;;;;;;;3.08;2.10;;;23.90;99.90;;;;;;6092401;23;20333;-65
2023/09/04 08:54:56;;;;;;;1.65;1.45;;;23.60;99.90;;;;;;6118934;23;20021;-65
2023/09/04 08:57:23;;;;;;;1.90;1.58;;;23.70;99.90;;;;;;6118063;23;20026;-65
2023/09/04 08:59:49;;;;;;;1.92;1.23;;;23.90;99.90;;;;;;6092823;23;20021;-65
2023/09/04 09:02:16;;;;;;;2.47;1.40;;;23.90;99.90;;;;;;6118374;23;20014;-65
2023/09/04 09:04:42;;;;;;;1.67;1.33;;;23.90;99.90;;;;;;6117122;23;20014;-65
2023/09/04 09:07:10;;;;;;;2.90;1.77;;;24.00;99.90;;;;;;6116590;23;20093;-65
2023/09/04 09:09:47;;;;;;;4.72;1.75;;;24.10;99.90;;;;;;6118458;23;20021;-65
2023/09/04 09:12:12;;;;;;;3.13;1.20;;;24.20;99.90;;;;;;6092289;23;20093;-64
2023/09/04 09:14:38;;;;;;;2.63;1.85;;;24.30;99.90;;;;;;6092381;23;20518;-65
2023/09/04 09:17:15;;;;;;;1.85;1.38;;;24.30;99.90;;;;;;6117161;23;20014;-64
2023/09/04 09:19:43;;;;;;;1.52;1.35;;;24.30;99.90;;;;;;6092029;23;20018;-65
2023/09/04 09:22:19;;;;;;;2.17;1.63;;;24.40;99.90;;;;;;6090647;23;20018;-65
2023/09/04 09:24:56;;;;;;;3.88;1.30;;;24.50;99.90;;;;;;6090580;23;20053;-65
2023/09/04 09:27:24;;;;;;;1.90;1.35;;;24.70;99.90;;;;;;6091185;23;20021;-65
2023/09/04 09:29:50;;;;;;;1.30;0.90;;;24.70;99.90;;;;;;6092577;23;20365;-65
2023/09/04 09:32:17;;;;;;;1.42;1.33;;;24.50;99.90;;;;;;6116593;23;20081;-64
2023/09/04 09:34:53;;;;;;;2.65;1.38;;;24.20;99.90;;;;;;6091783;23;20093;-65
2023/09/04 09:37:20;;;;;;;1.70;1.27;;;24.30;99.90;;;;;;6117183;23;20432;-65
2023/09/04 09:39:45;;;;;;;2.53;1.15;;;24.30;99.90;;;;;;6093205;23;20093;-65
2023/09/04 09:42:11;;;;;;;3.35;1.20;;;24.50;99.90;;;;;;6118251;23;20152;-65
2023/09/04 09:44:37;;;;;;;4.15;1.77;;;24.70;99.90;;;;;;6092139;23;20022;-65
2023/09/04 09:47:05;;;;;;;2.45;1.25;;;24.90;99.90;;;;;;6117124;23;20025;-65
2023/09/04 09:49:35;;;;;;;5.63;1.60;;;24.70;99.90;;;;;;6091714;23;20393;-65
2023/09/04 09:52:01;;;;;;;1.80;0.95;;;24.60;99.90;;;;;;6117684;23;20049;-65
2023/09/04 09:54:37;;;;;;;4.40;1.10;;;24.50;99.90;;;;;;6118749;23;20014;-65
2023/09/04 09:57:07;;;;;;;2.13;1.08;;;24.60;99.90;;;;;;6089813;23;20014;-65
2023/09/04 09:59:34;;;;;;;3.38;1.10;;;24.60;99.90;;;;;;6092537;23;20546;-65
2023/09/04 10:02:02;;;;;;;1.33;0.93;;;24.60;99.90;;;;;;6118104;23;20336;-64
2023/09/04 10:04:29;;;;;;;3.47;1.20;;;24.40;99.90;;;;;;6117405;23;20010;-65
2023/09/04 10:06:58;;;;;;;2.03;1.25;;;24.50;99.90;;;;;;6066763;23;20067;-64
2023/09/04 10:09:26;;;;;;;3.75;1.10;;;24.30;99.90;;;;;;6117198;23;20480;-65
2023/09/04 10:12:10;;;;;;;3.03;1.08;;;24.40;99.90;;;;;;6092429;23;20049;-64
2023/09/04 10:14:41;;;;;;;2.30;1.20;;;24.30;99.90;;;;;;6092335;23;20017;-64
2023/09/04 10:17:19;;;;;;;3.00;1.00;;;24.20;99.90;;;;;;6090782;23;20029;-65
2023/09/04 10:19:47;;;;;;;3.75;1.30;;;24.50;99.90;;;;;;6092643;23;20116;-65
2023/09/04 10:22:24;;;;;;;4.40;1.20;;;24.40;99.90;;;;;;6117116;23;20024;-65
2023/09/04 10:25:05;;;;;;;1.17;0.77;;;24.40;99.90;;;;;;6090118;23;20018;-65
2023/09/04 10:27:34;;;;;;;2.15;0.90;;;24.50;99.90;;;;;;6090795;23;20018;-65
2023/09/04 10:30:05;;;;;;;12.55;1.75;;;24.70;99.90;;;;;;6117175;23;20071;-65
2023/09/04 10:32:31;;;;;;;1.30;0.88;;;25.10;99.90;;;;;;6117910;23;20018;-65
2023/09/04 10:34:57;;;;;;;2.80;0.95;;;25.20;99.90;;;;;;6119159;23;20367;-65
2023/09/04 10:37:29;;;;;;;1.73;0.68;;;25.30;99.90;;;;;;6116671;23;20017;-65
2023/09/04 10:39:55;;;;;;;1.75;0.88;;;25.40;99.90;;;;;;6116704;23;20041;-64
2023/09/04 10:42:23;;;;;;;1.98;1.17;;;25.20;99.80;;;;;;6118207;23;20310;-65
2023/09/04 10:44:49;;;;;;;1.35;1.20;;;25.10;99.90;;;;;;6117627;23;20017;-65
2023/09/04 10:47:16;;;;;;;1.15;1.05;;;25.10;99.90;;;;;;6116571;23;20014;-65
2023/09/04 10:49:42;;;;;;;1.92;1.10;;;25.00;99.80;;;;;;6090150;23;20079;-64
2023/09/04 10:52:09;;;;;;;1.55;1.02;;;24.90;99.90;;;;;;6116767;23;20010;-65
2023/09/04 10:54:34;;;;;;;1.95;1.10;;;24.80;99.90;;;;;;6117005;23;20308;-65
2023/09/04 10:57:05;;;;;;;2.67;1.02;;;24.70;99.50;;;;;;6115552;23;20081;-65
2023/09/04 10:59:54;;;;;;;2.40;1.13;;;24.90;99.90;;;;;;6091892;23;20014;-65
2023/09/04 11:02:31;;;;;;;1.13;0.80;;;25.00;99.70;;;;;;6118318;23;20487;-65
2023/09/04 11:05:01;;;;;;;2.17;0.82;;;24.70;99.60;;;;;;6090855;23;20013;-65
2023/09/04 11:07:29;;;;;;;1.67;0.90;;;24.70;99.10;;;;;;6117387;23;20009;-65
2023/09/04 11:10:32;;;;;;;2.50;1.05;;;25.00;99.90;;;;;;6117158;23;20026;-65
2023/09/04 11:12:58;;;;;;;1.45;0.90;;;25.00;98.90;;;;;;6117165;23;20009;-65
2023/09/04 11:15:26;;;;;;;2.42;1.60;;;25.00;99.60;;;;;;6067240;23;20096;-64
2023/09/04 11:17:52;;;;;;;1.65;1.05;;;25.00;99.50;;;;;;6090897;23;20045;-65
2023/09/04 11:20:23;;;;;;;1.48;0.90;;;24.90;99.90;;;;;;6090839;23;20036;-65
2023/09/04 11:22:49;;;;;;;1.67;0.80;;;25.00;99.90;;;;;;6092075;23;20471;-65
2023/09/04 11:25:15;;;;;;;1.55;0.77;;;25.00;99.50;;;;;;6092311;23;20018;-65
2023/09/04 11:27:46;;;;;;;1.58;1.10;;;24.90;99.00;;;;;;6117651;23;20088;-65
2023/09/04 11:30:13;;;;;;;3.05;1.42;;;24.90;99.80;;;;;;6118461;23;20021;-64
2023/09/04 11:32:39;;;;;;;1.48;0.95;;;24.80;99.60;;;;;;6119176;23;20044;-65
2023/09/04 11:35:10;;;;;;;1.33;0.82;;;24.80;99.80;;;;;;6091788;23;20032;-65
2023/09/04 11:37:36;;;;;;;1.83;1.30;;;25.00;99.90;;;;;;6088383;23;20089;-65
2023/09/04 11:40:02;;;;;;;1.17;0.70;;;25.10;99.90;;;;;;6117447;23;20085;-65
2023/09/04 11:42:27;;;;;;;1.67;0.90;;;25.10;99.60;;;;;;6118757;23;20026;-65
2023/09/04 11:44:54;;;;;;;3.33;0.60;;;25.10;99.70;;;;;;6093330;23;20024;-65
2023/09/04 11:47:22;;;;;;;4.70;1.23;;;25.20;99.10;;;;;;6114933;23;20017;-65
2023/09/04 11:49:48;;;;;;;1.65;0.90;;;25.30;99.20;;;;;;6092586;23;20775;-65
2023/09/04 11:52:16;;;;;;;1.35;0.70;;;25.40;99.40;;;;;;6118251;23;20084;-65
2023/09/04 11:54:42;;;;;;;1.17;0.95;;;25.50;99.70;;;;;;6119477;23;20017;-65
2023/09/04 11:57:11;;;;;;;1.50;0.88;;;25.50;99.90;;;;;;6090782;23;20013;-65
2023/09/04 11:59:39;;;;;;;1.33;0.80;;;25.60;99.90;;;;;;6118766;23;20332;-65
2023/09/04 12:02:07;;;;;;;1.38;0.90;;;25.40;98.70;;;;;;6091868;23;20487;-65
2023/09/04 12:04:33;;;;;;;1.40;0.75;;;25.40;99.60;;;;;;6119722;23;20025;-65
2023/09/04 12:07:03;;;;;;;1.60;1.00;;;25.60;99.10;;;;;;6117995;23;20046;-65
2023/09/04 12:09:29;;;;;;;1.83;0.75;;;25.50;99.10;;;;;;6093744;23;20017;-65
2023/09/04 12:11:56;;;;;;;2.10;0.93;;;25.40;99.20;;;;;;6092330;23;20025;-65
2023/09/04 12:14:21;;;;;;;2.47;1.10;;;25.30;98.60;;;;;;6119143;23;20018;-65
2023/09/04 12:16:47;;;;;;;2.20;1.17;;;25.30;99.10;;;;;;6090423;23;20018;-65
2023/09/04 12:19:17;;;;;;;3.65;1.67;;;25.20;99.80;;;;;;6114490;23;20014;-65
2023/09/04 12:21:43;;;;;;;1.45;0.75;;;25.30;99.90;;;;;;6090646;23;20013;-65
2023/09/04 12:24:13;;;;;;;2.10;1.00;;;25.10;99.40;;;;;;6116742;23;20014;-65
2023/09/04 12:26:40;;;;;;;1.13;0.70;;;24.90;98.20;;;;;;6113079;23;20076;-65
2023/09/04 12:29:08;;;;;;;1.67;0.90;;;25.10;98.90;;;;;;6092245;23;20017;-65
2023/09/04 12:31:34;;;;;;;1.38;1.05;;;25.30;99.20;;;;;;6116937;23;20018;-65
2023/09/04 12:34:01;;;;;;;1.45;0.80;;;25.30;98.80;;;;;;6118147;23;20516;-65
2023/09/04 12:36:29;;;;;;;1.45;1.00;;;25.20;98.90;;;;;;6091778;23;20021;-65
2023/09/04 12:38:55;;;;;;;3.15;1.08;;;25.30;98.80;;;;;;6093082;23;20018;-65
2023/09/04 12:41:21;;;;;;;1.65;0.88;;;25.30;99.00;;;;;;6118612;23;20505;-65
2023/09/04 12:43:47;;;;;;;0.88;0.77;;;25.40;98.90;;;;;;6118987;23;20021;-65
2023/09/04 12:46:13;;;;;;;1.65;0.68;;;25.10;98.00;;;;;;6118332;23;20349;-65
2023/09/04 12:48:41;;;;;;;1.95;1.02;;;25.20;98.60;;;;;;6118072;23;20017;-65
2023/09/04 12:51:07;;;;;;;1.98;1.02;;;25.20;98.70;;;;;;6118260;23;20021;-65
2023/09/04 12:53:33;;;;;;;1.73;0.68;;;25.40;98.50;;;;;;6091109;23;20609;-65
2023/09/04 12:55:59;;;;;;;1.80;0.95;;;25.30;96.70;;;;;;6118470;23;20006;-65
2023/09/04 12:58:25;;;;;;;2.30;0.70;;;25.20;98.30;;;;;;6117743;23;20437;-65
2023/09/04 13:00:53;;;;;;;1.65;0.60;;;25.40;98.60;;;;;;6089898;23;20026;-65
2023/09/04 13:03:19;;;;;;;2.78;0.90;;;25.40;98.20;;;;;;6092296;23;20017;-65
2023/09/04 13:05:44;;;;;;;2.92;0.70;;;25.40;97.90;;;;;;6092047;23;20034;-65
2023/09/04 13:08:10;;;;;;;1.20;0.70;;;25.30;98.30;;;;;;6118415;23;20021;-65
2023/09/04 13:10:37;;;;;;;2.33;0.70;;;25.30;98.20;;;;;;6119251;23;20045;-65
2023/09/04 13:13:03;;;;;;;3.08;0.90;;;25.40;98.60;;;;;;6093606;23;20029;-65
2023/09/04 13:15:29;;;;;;;1.50;0.80;;;25.40;98.60;;;;;;6118010;23;20041;-65